createdAt,value
2018-06-08T00:00:00.365Z,18.49
2018-06-08T00:02:29.361Z,18.52
2018-06-08T00:04:58.441Z,18.49
2018-06-08T00:07:27.375Z,18.48
2018-06-08T00:09:56.357Z,18.49
2018-06-08T00:12:25.283Z,18.51
2018-06-08T00:14:54.265Z,18.46
2018-06-08T00:17:23.252Z,18.45
2018-06-08T00:19:52.171Z,18.42
2018-06-08T00:22:21.149Z,18.43
2018-06-08T00:24:56.316Z,18.37
2018-06-08T00:27:25.248Z,18.29
2018-06-08T00:29:54.260Z,18.30
2018-06-08T00:32:23.183Z,18.35
2018-06-08T00:34:52.216Z,18.28
2018-06-08T00:37:21.264Z,18.26
2018-06-08T00:39:50.188Z,18.22
2018-06-08T00:42:19.159Z,18.18
2018-06-08T00:44:48.131Z,18.13
2018-06-08T00:47:17.118Z,18.10
2018-06-08T00:49:46.047Z,18.10
2018-06-08T00:52:15.076Z,18.09
2018-06-08T00:54:44.163Z,18.09
2018-06-08T00:57:13.099Z,18.08
2018-06-08T00:59:42.176Z,18.06
2018-06-08T01:02:11.216Z,18.04
2018-06-08T01:04:40.205Z,17.99
2018-06-08T01:07:09.183Z,17.96
2018-06-08T01:09:39.029Z,17.95
2018-06-08T01:12:08.065Z,17.89
2018-06-08T01:14:37.061Z,17.95
2018-06-08T01:17:05.972Z,17.93
2018-06-08T01:19:36.112Z,17.90
2018-06-08T01:22:05.080Z,17.84
2018-06-08T01:24:34.004Z,17.82
2018-06-08T01:27:02.932Z,17.78
2018-06-08T01:29:31.859Z,17.72
2018-06-08T01:32:00.950Z,17.68
2018-06-08T01:34:29.865Z,17.65
2018-06-08T01:36:58.900Z,17.62
2018-06-08T01:39:27.897Z,17.63
2018-06-08T01:41:56.981Z,17.60
2018-06-08T01:44:25.992Z,17.56
2018-06-08T01:46:54.901Z,17.56
2018-06-08T01:49:23.902Z,17.50
2018-06-08T01:51:52.901Z,17.51
2018-06-08T01:54:21.884Z,17.54
2018-06-08T01:56:50.843Z,17.54
2018-06-08T01:59:19.825Z,17.52
2018-06-08T02:01:48.747Z,17.49
2018-06-08T02:04:17.684Z,17.48
2018-06-08T02:06:46.667Z,17.45
2018-06-08T02:09:15.657Z,17.44
2018-06-08T02:11:44.592Z,17.41
2018-06-08T02:14:13.584Z,17.41
2018-06-08T02:16:42.553Z,17.39
2018-06-08T02:19:11.705Z,17.43
2018-06-08T02:21:40.688Z,17.43
2018-06-08T02:24:09.627Z,17.43
2018-06-08T02:26:38.600Z,17.42
2018-06-08T02:29:07.600Z,17.39
2018-06-08T02:31:36.641Z,17.35
2018-06-08T02:34:05.640Z,17.37
2018-06-08T02:36:34.547Z,17.36
2018-06-08T02:39:03.534Z,17.37
2018-06-08T02:41:32.472Z,17.38
2018-06-08T02:44:01.440Z,17.43
2018-06-08T02:46:30.408Z,17.46
2018-06-08T02:48:59.324Z,17.50
2018-06-08T02:51:28.725Z,17.53
2018-06-08T02:53:57.657Z,17.52
2018-06-08T02:56:26.592Z,17.53
2018-06-08T02:58:55.563Z,17.56
2018-06-08T03:01:24.602Z,17.58
2018-06-08T03:03:53.589Z,17.61
2018-06-08T03:06:22.636Z,17.66
2018-06-08T03:08:51.556Z,17.72
2018-06-08T03:11:20.541Z,17.82
2018-06-08T03:13:49.472Z,17.95
2018-06-08T03:16:18.404Z,18.05
2018-06-08T03:18:47.331Z,18.13
2018-06-08T03:21:16.336Z,18.25
2018-06-08T03:23:45.384Z,18.35
2018-06-08T03:26:14.305Z,18.43
2018-06-08T03:28:43.218Z,18.56
2018-06-08T03:31:12.224Z,18.69
2018-06-08T03:33:41.160Z,18.80
2018-06-08T03:36:10.320Z,18.95
2018-06-08T03:38:39.316Z,19.06
2018-06-08T03:41:08.309Z,19.18
2018-06-08T03:43:37.309Z,19.27
2018-06-08T03:46:06.340Z,19.63
2018-06-08T03:48:35.372Z,21.23
2018-06-08T03:51:04.316Z,21.94
2018-06-08T03:53:33.367Z,21.78
2018-06-08T03:56:02.388Z,22.14
2018-06-08T03:58:31.331Z,23.58
2018-06-08T04:01:00.401Z,24.11
2018-06-08T04:03:30.420Z,24.90
2018-06-08T04:05:59.418Z,26.56
2018-06-08T04:08:28.461Z,27.96
2018-06-08T04:10:57.476Z,29.15
2018-06-08T04:13:26.544Z,30.29
2018-06-08T04:15:55.504Z,31.08
2018-06-08T04:18:24.572Z,31.91
2018-06-08T04:20:53.586Z,32.42
2018-06-08T04:23:22.604Z,32.95
2018-06-08T04:25:51.741Z,33.17
2018-06-08T04:28:20.677Z,33.65
2018-06-08T04:30:49.674Z,34.34
2018-06-08T04:33:18.680Z,34.15
2018-06-08T04:35:47.754Z,34.14
2018-06-08T04:38:16.870Z,34.26
2018-06-08T04:40:45.845Z,35.09
2018-06-08T04:43:14.841Z,35.57
2018-06-08T04:45:43.779Z,35.42
2018-06-08T04:48:12.735Z,34.73
2018-06-08T04:50:41.712Z,35.50
2018-06-08T04:53:10.648Z,36.22
2018-06-08T04:55:39.633Z,36.55
2018-06-08T04:58:08.711Z,37.12
2018-06-08T05:00:37.712Z,37.14
2018-06-08T05:03:06.708Z,36.66
2018-06-08T05:05:35.693Z,36.41
2018-06-08T05:08:04.701Z,36.62
2018-06-08T05:10:33.708Z,36.53
2018-06-08T05:13:02.651Z,36.36
2018-06-08T05:15:31.700Z,36.13
2018-06-08T05:18:00.737Z,36.91
2018-06-08T05:20:29.741Z,36.43
2018-06-08T05:22:58.688Z,36.65
2018-06-08T05:25:27.619Z,37.39
2018-06-08T05:27:56.785Z,38.10
2018-06-08T05:30:27.100Z,38.48
2018-06-08T05:32:56.036Z,38.55
2018-06-08T05:35:25.062Z,38.30
2018-06-08T05:37:54.076Z,37.97
2018-06-08T05:40:23.185Z,38.22
2018-06-08T05:42:52.307Z,38.04
2018-06-08T05:45:21.465Z,38.04
2018-06-08T05:47:50.427Z,39.00
2018-06-08T05:50:19.360Z,39.86
2018-06-08T05:52:48.420Z,40.20
2018-06-08T05:55:17.404Z,40.09
2018-06-08T05:57:46.348Z,40.07
2018-06-08T06:00:15.398Z,40.11
2018-06-08T06:02:44.415Z,39.02
2018-06-08T06:05:13.419Z,38.96
2018-06-08T06:07:42.562Z,39.22
2018-06-08T06:10:11.504Z,37.72
2018-06-08T06:12:40.474Z,37.68
2018-06-08T06:15:09.514Z,38.20
2018-06-08T06:17:38.683Z,37.93
2018-06-08T06:20:08.499Z,38.15
2018-06-08T06:22:37.427Z,38.87
2018-06-08T06:25:06.784Z,38.97
2018-06-08T06:27:35.800Z,37.92
2018-06-08T06:30:05.605Z,38.19
2018-06-08T06:32:34.606Z,37.90
2018-06-08T06:35:03.680Z,37.79
2018-06-08T06:37:32.628Z,37.99
2018-06-08T06:40:01.916Z,37.91
2018-06-08T06:42:31.328Z,38.49
2018-06-08T06:45:00.677Z,38.34
2018-06-08T06:47:30.048Z,38.21
2018-06-08T06:49:59.394Z,38.62
2018-06-08T06:52:28.789Z,37.91
2018-06-08T06:54:58.265Z,37.66
2018-06-08T06:57:27.660Z,37.48
2018-06-08T06:59:57.033Z,36.59
2018-06-08T07:02:26.430Z,36.06
2018-06-08T07:04:55.814Z,36.77
2018-06-08T07:07:25.247Z,37.79
2018-06-08T07:09:54.634Z,38.35
2018-06-08T07:12:24.014Z,38.04
2018-06-08T07:14:53.413Z,38.08
2018-06-08T07:17:22.408Z,37.60
2018-06-08T07:19:51.507Z,37.57
2018-06-08T07:22:21.686Z,36.61
2018-06-08T07:24:50.659Z,36.15
2018-06-08T07:27:19.685Z,36.50
2018-06-08T07:29:48.635Z,36.36
2018-06-08T07:32:17.644Z,36.77
2018-06-08T07:34:46.769Z,36.78
2018-06-08T07:37:15.729Z,36.99
2018-06-08T07:39:44.703Z,37.05
2018-06-08T07:42:13.740Z,37.05
2018-06-08T07:44:42.816Z,36.22
2018-06-08T07:47:11.826Z,35.70
2018-06-08T07:49:40.834Z,35.33
2018-06-08T07:52:09.798Z,34.88
2018-06-08T07:54:38.808Z,34.20
2018-06-08T07:57:07.875Z,33.88
2018-06-08T07:59:36.819Z,33.28
2018-06-08T08:02:05.810Z,33.27
2018-06-08T08:04:34.864Z,33.00
2018-06-08T08:07:03.815Z,32.89
2018-06-08T08:09:32.811Z,33.07
2018-06-08T08:12:01.753Z,33.43
2018-06-08T08:14:30.748Z,33.26
2018-06-08T08:16:59.696Z,33.05
2018-06-08T08:19:28.737Z,32.95
2018-06-08T08:21:57.790Z,32.80
2018-06-08T08:24:26.727Z,32.77
2018-06-08T08:26:55.769Z,32.55
2018-06-08T08:29:24.743Z,32.65
2018-06-08T08:31:53.674Z,32.75
2018-06-08T08:34:22.644Z,32.66
2018-06-08T08:36:51.684Z,32.53
2018-06-08T08:39:20.649Z,32.68
2018-06-08T08:41:49.645Z,32.94
2018-06-08T08:44:18.584Z,33.23
2018-06-08T08:46:47.582Z,33.25
2018-06-08T08:49:16.578Z,33.14
2018-06-08T08:51:45.539Z,32.99
2018-06-08T08:54:14.497Z,33.00
2018-06-08T08:56:43.545Z,33.02
2018-06-08T08:59:12.657Z,32.95
2018-06-08T09:01:41.596Z,33.01
2018-06-08T09:04:10.586Z,33.07
2018-06-08T09:06:39.543Z,33.13
2018-06-08T09:09:08.656Z,33.21
2018-06-08T09:11:37.697Z,33.11
2018-06-08T09:14:06.865Z,33.19
2018-06-08T09:16:35.792Z,33.31
2018-06-08T09:19:04.764Z,33.46
2018-06-08T09:21:33.749Z,33.80
2018-06-08T09:24:02.904Z,34.27
2018-06-08T09:26:31.892Z,34.43
2018-06-08T09:29:00.916Z,34.79
2018-06-08T09:31:29.920Z,34.86
2018-06-08T09:33:58.867Z,34.93
2018-06-08T09:36:27.932Z,34.78
2018-06-08T09:38:56.866Z,34.70
2018-06-08T09:41:25.904Z,34.40
2018-06-08T09:43:54.844Z,34.44
2018-06-08T09:46:23.807Z,34.48
2018-06-08T09:48:52.799Z,34.47
2018-06-08T09:51:21.788Z,34.63
2018-06-08T09:53:50.836Z,34.85
2018-06-08T09:56:19.799Z,35.09
2018-06-08T09:58:48.731Z,35.35
2018-06-08T10:01:17.711Z,35.90
2018-06-08T10:03:46.720Z,36.34
2018-06-08T10:06:15.713Z,36.47
2018-06-08T10:08:44.643Z,36.35
2018-06-08T10:11:13.637Z,36.33
2018-06-08T10:13:42.725Z,36.52
2018-06-08T10:16:11.716Z,36.84
2018-06-08T10:18:40.808Z,37.45
2018-06-08T10:21:09.929Z,37.73
2018-06-08T10:23:38.940Z,37.82
2018-06-08T10:26:07.974Z,37.79
2018-06-08T10:28:36.965Z,38.10
2018-06-08T10:31:05.892Z,38.07
2018-06-08T10:33:34.884Z,38.27
2018-06-08T10:36:03.821Z,38.71
2018-06-08T10:38:32.838Z,39.30
2018-06-08T10:41:01.830Z,39.25
2018-06-08T10:43:30.817Z,39.01
2018-06-08T10:45:59.857Z,39.02
2018-06-08T10:48:28.793Z,39.07
2018-06-08T10:50:57.803Z,38.83
2018-06-08T10:53:26.739Z,38.32
2018-06-08T10:55:55.789Z,38.71
2018-06-08T10:58:24.832Z,38.67
2018-06-08T11:00:53.873Z,39.17
2018-06-08T11:03:22.876Z,39.74
2018-06-08T11:05:51.880Z,40.39
2018-06-08T11:08:20.953Z,40.51
2018-06-08T11:10:49.956Z,41.09
2018-06-08T11:13:18.935Z,41.14
2018-06-08T11:15:47.960Z,40.80
2018-06-08T11:18:16.892Z,40.59
2018-06-08T11:20:45.996Z,40.42
2018-06-08T11:23:15.048Z,39.86
2018-06-08T11:25:43.976Z,39.72
2018-06-08T11:28:12.911Z,40.32
2018-06-08T11:30:41.912Z,40.62
2018-06-08T11:33:11.053Z,40.61
2018-06-08T11:35:39.992Z,40.00
2018-06-08T11:38:08.980Z,40.32
2018-06-08T11:40:38.021Z,40.72
2018-06-08T11:43:07.010Z,41.44
2018-06-08T11:45:35.995Z,42.00
2018-06-08T11:48:05.007Z,41.58
2018-06-08T11:50:33.951Z,40.69
2018-06-08T11:53:02.889Z,40.84
2018-06-08T11:55:31.891Z,40.95
2018-06-08T11:58:00.968Z,40.42
2018-06-08T12:00:29.920Z,40.29
2018-06-08T12:02:58.893Z,39.75
2018-06-08T12:05:27.903Z,39.99
2018-06-08T12:07:56.848Z,40.35
2018-06-08T12:10:25.901Z,39.91
2018-06-08T12:12:54.950Z,39.48
2018-06-08T12:15:23.944Z,39.31
2018-06-08T12:17:52.901Z,39.48
2018-06-08T12:20:21.839Z,38.91
2018-06-08T12:22:50.937Z,38.17
2018-06-08T12:25:19.936Z,37.88
2018-06-08T12:27:48.895Z,37.29
2018-06-08T12:30:17.912Z,37.42
2018-06-08T12:32:46.888Z,37.45
2018-06-08T12:35:15.884Z,37.30
2018-06-08T12:37:44.835Z,36.60
2018-06-08T12:40:13.856Z,35.96
2018-06-08T12:42:42.860Z,35.52
2018-06-08T12:45:11.872Z,35.39
2018-06-08T12:47:40.938Z,35.50
2018-06-08T12:50:09.951Z,36.56
2018-06-08T12:52:38.948Z,37.95
2018-06-08T12:55:07.962Z,39.23
2018-06-08T12:57:37.044Z,40.56
2018-06-08T13:00:06.337Z,41.68
2018-06-08T13:02:35.279Z,42.37
2018-06-08T13:05:04.265Z,41.60
2018-06-08T13:07:33.299Z,40.87
2018-06-08T13:10:02.306Z,40.20
2018-06-08T13:12:31.389Z,39.59
2018-06-08T13:15:00.336Z,38.55
2018-06-08T13:17:29.349Z,38.11
2018-06-08T13:19:58.356Z,38.42
2018-06-08T13:22:27.401Z,38.34
2018-06-08T13:24:56.511Z,38.33
2018-06-08T13:27:25.525Z,39.01
2018-06-08T13:29:54.528Z,40.30
2018-06-08T13:32:23.557Z,41.27
2018-06-08T13:34:52.504Z,41.23
2018-06-08T13:37:21.561Z,41.45
2018-06-08T13:39:50.570Z,41.77
2018-06-08T13:42:19.541Z,42.70
2018-06-08T13:44:48.533Z,41.29
2018-06-08T13:47:17.545Z,39.62
2018-06-08T13:49:46.624Z,39.79
2018-06-08T13:52:15.633Z,39.08
2018-06-08T13:54:44.592Z,38.14
2018-06-08T13:57:13.536Z,37.71
2018-06-08T13:59:42.473Z,37.04
2018-06-08T14:02:11.515Z,36.34
2018-06-08T14:04:40.565Z,35.95
2018-06-08T14:07:09.570Z,35.50
2018-06-08T14:09:38.536Z,35.13
2018-06-08T14:12:07.497Z,34.68
2018-06-08T14:14:36.602Z,34.43
2018-06-08T14:17:05.872Z,34.22
2018-06-08T14:19:34.856Z,34.07
2018-06-08T14:22:03.808Z,33.96
2018-06-08T14:24:32.752Z,34.01
2018-06-08T14:27:01.801Z,33.86
2018-06-08T14:29:30.857Z,33.74
2018-06-08T14:31:59.797Z,33.56
2018-06-08T14:34:28.748Z,33.58
2018-06-08T14:36:57.688Z,33.56
2018-06-08T14:39:26.696Z,33.44
2018-06-08T14:41:55.702Z,33.47
2018-06-08T14:44:24.772Z,33.36
2018-06-08T14:46:53.751Z,33.18
2018-06-08T14:49:22.749Z,33.06
2018-06-08T14:51:51.795Z,32.98
2018-06-08T14:54:20.864Z,32.79
2018-06-08T14:56:49.800Z,32.43
2018-06-08T14:59:18.759Z,32.41
2018-06-08T15:01:47.765Z,32.46
2018-06-08T15:04:16.828Z,32.45
2018-06-08T15:06:45.784Z,32.43
2018-06-08T15:09:14.742Z,32.36
2018-06-08T15:11:43.761Z,32.40
2018-06-08T15:14:12.786Z,32.32
2018-06-08T15:16:41.789Z,32.20
2018-06-08T15:19:10.731Z,32.09
2018-06-08T15:21:39.773Z,32.13
2018-06-08T15:24:08.721Z,32.13
2018-06-08T15:26:37.709Z,32.07
2018-06-08T15:29:06.765Z,31.95
2018-06-08T15:31:35.708Z,31.76
2018-06-08T15:34:04.704Z,31.71
2018-06-08T15:36:33.705Z,31.74
2018-06-08T15:39:02.765Z,31.79
2018-06-08T15:41:31.792Z,31.80
2018-06-08T15:44:00.790Z,31.85
2018-06-08T15:46:29.789Z,31.85
2018-06-08T15:48:58.801Z,31.79
2018-06-08T15:51:27.812Z,31.74
2018-06-08T15:53:56.875Z,31.74
2018-06-08T15:56:25.888Z,31.62
2018-06-08T15:58:54.868Z,31.62
2018-06-08T16:01:23.869Z,31.51
2018-06-08T16:03:52.849Z,31.44
2018-06-08T16:06:21.908Z,31.39
2018-06-08T16:08:50.888Z,31.36
2018-06-08T16:11:19.833Z,31.26
2018-06-08T16:13:48.837Z,31.13
2018-06-08T16:16:17.768Z,31.06
2018-06-08T16:18:46.719Z,30.97
2018-06-08T16:21:15.725Z,30.91
2018-06-08T16:23:44.688Z,30.93
2018-06-08T16:26:13.678Z,30.85
2018-06-08T16:28:42.628Z,30.81
2018-06-08T16:31:11.637Z,30.88
2018-06-08T16:33:40.568Z,30.90
2018-06-08T16:36:09.651Z,30.91
2018-06-08T16:38:38.620Z,30.88
2018-06-08T16:41:07.681Z,30.85
2018-06-08T16:43:36.693Z,30.78
2018-06-08T16:46:05.710Z,30.69
2018-06-08T16:48:34.721Z,30.55
2018-06-08T16:51:03.872Z,30.44
2018-06-08T16:53:32.832Z,30.36
2018-06-08T16:56:01.852Z,30.24
2018-06-08T16:58:30.807Z,30.09
2018-06-08T17:00:59.826Z,29.97
2018-06-08T17:03:28.911Z,29.80
2018-06-08T17:05:57.936Z,29.66
2018-06-08T17:08:27.092Z,29.52
2018-06-08T17:10:56.073Z,29.39
2018-06-08T17:13:25.072Z,29.22
2018-06-08T17:15:54.134Z,29.09
2018-06-08T17:18:23.085Z,28.96
2018-06-08T17:20:52.141Z,28.81
2018-06-08T17:23:21.157Z,28.59
2018-06-08T17:25:50.201Z,28.49
2018-06-08T17:28:19.266Z,28.37
2018-06-08T17:30:48.232Z,28.25
2018-06-08T17:33:17.244Z,28.11
2018-06-08T17:35:46.246Z,28.05
2018-06-08T17:38:15.266Z,27.95
2018-06-08T17:40:44.221Z,27.87
2018-06-08T17:43:13.178Z,27.78
2018-06-08T17:45:42.362Z,27.71
2018-06-08T17:48:11.381Z,27.64
2018-06-08T17:50:40.453Z,27.50
2018-06-08T17:53:09.581Z,27.46
2018-06-08T17:55:38.617Z,27.34
2018-06-08T17:58:07.621Z,27.26
2018-06-08T18:00:36.657Z,27.18
2018-06-08T18:03:05.718Z,27.19
2018-06-08T18:05:34.664Z,27.14
2018-06-08T18:08:03.653Z,27.03
2018-06-08T18:10:32.753Z,26.98
2018-06-08T18:13:02.025Z,26.90
2018-06-08T18:15:30.985Z,26.81
2018-06-08T18:17:59.997Z,26.71
2018-06-08T18:20:28.963Z,26.67
2018-06-08T18:22:57.985Z,26.63
2018-06-08T18:25:27.131Z,26.58
2018-06-08T18:27:56.116Z,26.53
2018-06-08T18:30:25.097Z,26.49
2018-06-08T18:32:54.057Z,26.43
2018-06-08T18:35:23.012Z,26.36
2018-06-08T18:37:51.998Z,26.33
2018-06-08T18:40:21.008Z,26.31
2018-06-08T18:42:50.014Z,26.25
2018-06-08T18:45:18.992Z,26.19
2018-06-08T18:47:47.966Z,26.14
2018-06-08T18:50:16.966Z,26.06
2018-06-08T18:52:45.918Z,26.02
2018-06-08T18:55:14.905Z,25.97
2018-06-08T18:57:43.961Z,25.93
2018-06-08T19:00:12.931Z,25.89
2018-06-08T19:02:41.986Z,25.87
2018-06-08T19:05:11.093Z,25.80
2018-06-08T19:07:40.120Z,25.78
2018-06-08T19:10:09.121Z,25.76
2018-06-08T19:12:38.159Z,25.76
2018-06-08T19:15:07.274Z,25.73
2018-06-08T19:17:36.302Z,25.71
2018-06-08T19:20:05.346Z,25.64
2018-06-08T19:22:34.376Z,25.55
2018-06-08T19:25:03.408Z,25.52
2018-06-08T19:27:32.470Z,25.46
2018-06-08T19:30:01.500Z,25.39
2018-06-08T19:32:30.485Z,25.36
2018-06-08T19:34:59.585Z,25.29
2018-06-08T19:37:28.662Z,25.28
2018-06-08T19:39:57.652Z,25.18
2018-06-08T19:42:26.677Z,25.17
2018-06-08T19:44:55.660Z,25.08
2018-06-08T19:47:24.706Z,25.03
2018-06-08T19:49:53.691Z,24.97
2018-06-08T19:52:22.789Z,24.89
2018-06-08T19:54:51.756Z,24.82
2018-06-08T19:57:20.857Z,24.80
2018-06-08T19:59:49.824Z,24.78
2018-06-08T20:02:18.772Z,24.77
2018-06-08T20:04:47.897Z,24.75
2018-06-08T20:07:16.929Z,24.77
2018-06-08T20:09:45.953Z,24.72
2018-06-08T20:12:14.978Z,24.68
2018-06-08T20:14:44.001Z,24.62
2018-06-08T20:17:13.038Z,24.53
2018-06-08T20:19:42.117Z,24.45
2018-06-08T20:22:11.116Z,24.38
2018-06-08T20:24:40.146Z,24.32
2018-06-08T20:27:09.108Z,24.23
2018-06-08T20:29:38.132Z,24.22
2018-06-08T20:32:07.137Z,24.21
2018-06-08T20:34:36.158Z,24.16
2018-06-08T20:37:05.194Z,24.13
2018-06-08T20:39:34.275Z,24.09
2018-06-08T20:42:03.277Z,24.03
2018-06-08T20:44:32.289Z,24.04
2018-06-08T20:47:01.384Z,24.03
2018-06-08T20:49:30.479Z,24.00
2018-06-08T20:51:59.493Z,23.93
2018-06-08T20:54:28.504Z,23.93
2018-06-08T20:57:30.537Z,23.93
2018-06-08T20:59:59.492Z,23.91
2018-06-08T21:02:28.515Z,23.86
2018-06-08T21:04:57.618Z,23.82
2018-06-08T21:07:26.650Z,23.80
2018-06-08T21:09:55.616Z,23.74
2018-06-08T21:12:24.688Z,23.67
2018-06-08T21:14:53.767Z,23.63
2018-06-08T21:17:22.791Z,23.58
2018-06-08T21:19:51.816Z,23.56
2018-06-08T21:22:20.824Z,23.53
2018-06-08T21:24:49.941Z,23.50
2018-06-08T21:27:19.076Z,23.48
2018-06-08T21:29:48.093Z,23.51
2018-06-08T21:32:17.158Z,23.50
2018-06-08T21:34:46.115Z,23.47
2018-06-08T21:37:15.077Z,23.50
2018-06-08T21:39:44.149Z,23.46
2018-06-08T21:42:13.183Z,23.44
2018-06-08T21:44:42.202Z,23.42
2018-06-08T21:47:11.293Z,23.34
2018-06-08T21:49:40.333Z,23.31
2018-06-08T21:52:09.341Z,23.29
2018-06-08T21:54:38.368Z,23.27
2018-06-08T21:57:07.429Z,23.21
2018-06-08T21:59:36.395Z,23.17
2018-06-08T22:02:05.741Z,23.10
2018-06-08T22:04:34.886Z,23.07
2018-06-08T22:07:03.875Z,23.02
2018-06-08T22:09:33.041Z,22.97
2018-06-08T22:12:02.020Z,23.01
2018-06-08T22:14:30.970Z,23.02
2018-06-08T22:16:59.972Z,23.04
2018-06-08T22:19:29.028Z,23.11
2018-06-08T22:21:57.987Z,23.17
2018-06-08T22:24:27.043Z,23.17
2018-06-08T22:26:55.992Z,23.14
2018-06-08T22:29:25.005Z,23.14
2018-06-08T22:31:54.004Z,23.14
2018-06-08T22:34:23.009Z,23.12
2018-06-08T22:36:51.975Z,23.14
2018-06-08T22:39:20.986Z,23.13
2018-06-08T22:41:50.009Z,23.11
2018-06-08T22:44:18.963Z,23.06
2018-06-08T22:46:48.017Z,22.98
2018-06-08T22:49:17.164Z,22.88
2018-06-08T22:51:46.127Z,22.90
2018-06-08T22:54:15.098Z,22.76
2018-06-08T22:56:44.361Z,22.72
2018-06-08T22:59:13.453Z,22.68
2018-06-08T23:01:42.454Z,22.63
2018-06-08T23:04:11.482Z,22.55
2018-06-08T23:06:40.544Z,22.49
2018-06-08T23:09:09.675Z,22.41
2018-06-08T23:11:38.644Z,22.40
2018-06-08T23:14:07.702Z,22.36
2018-06-08T23:16:36.715Z,22.36
2018-06-08T23:19:05.789Z,22.28
2018-06-08T23:21:34.821Z,22.25
2018-06-08T23:24:03.885Z,22.22
2018-06-08T23:26:33.056Z,22.17
2018-06-08T23:29:02.073Z,22.13
2018-06-08T23:31:31.145Z,22.07
2018-06-08T23:34:00.357Z,22.04
2018-06-08T23:36:29.384Z,22.00
2018-06-08T23:38:58.429Z,22.02
2018-06-08T23:41:27.424Z,22.02
2018-06-08T23:43:56.473Z,22.04
2018-06-08T23:46:25.506Z,22.03
2018-06-08T23:48:54.526Z,22.00
2018-06-08T23:51:23.520Z,22.03
2018-06-08T23:53:52.510Z,22.04
2018-06-08T23:56:21.472Z,21.97
2018-06-08T23:58:50.477Z,21.93
